ティフアナ の空港の天気 - METARとTAF

ヘネラル・アベラルド・L・ロドリゲス国際空港 ( MMTJ / TIJ ) - メキシコ バハ・カリフォルニア州ティフアナ
飛行場実況気象(Metar)
観測時間09/18 13:48 PDT (09/18 20:48 UTC)
風向・風速西北西 5m/s
視程10km以上
天気現象
なし
気温23℃
湿度61%
気圧1018hPa
METARMMTJ 182048Z 30010KT 8SM SKC 23/15 A3006 RMK SLP180 57009 907 HZY
過去の天気等 Google飛行場航空写真 Wunderground天気予報

過去48時間のMETAR

飛行場予報(TAF)
発表時間: 9/18 10:10 PDT (9/18 17:10 UTC)
予報対象時間: 18日11時 PDT ~ 19日17時 PDT
風向・風速北西 4m/s
視程10km以上
全天の4割程度の雲 雲底高度 610m
18日19時 PDT ~ 18日20時 PDT に徐々に
風向・風速西北西 3m/s
全天の8割程度の雲 雲底高度 300m
18日23時 PDT から
風向・風速西北西 3m/s
視程10km以上
天気現象煙霧
全天を覆う雲 雲底高度 300m
19日4時 PDT ~ 19日8時 PDT に一時的に
視程8050m
天気現象もや 煙霧
19日10時 PDT から
風向・風速西南西 3m/s
視程10km以上
全天の4割程度の雲 雲底高度 460m
TAF MMTJ 181710Z 1818/1924 32008KT P6SM SCT020 TX23/1821Z TN17/1912Z
BECMG 1902/1903 30005KT BKN010
FM190600 30005KT 6SM HZ OVC010
TEMPO 1911/1915 5SM BR HZ
FM191700 24006KT P6SM SCT015